Time;durP1;ratioP1;P1;durP2;ratioP2;P2;SDS_P1;SDS_P2;PMS_P1;PMS_P2;Temp;Humidity;BMP_temperature;BMP_pressure;BME280_temperature;BME280_humidity;BME280_pressure;Samples;Min_cycle;Max_cycle;Signal;HPM_P1;HPM_P2
2023/05/18 00:00:01;;;;;;;;;1.25;1.25;;;;;10.71;56.99;102882.13;5027109;28;10247;-64
2023/05/18 00:02:30;;;;;;;;;1.00;1.00;;;;;10.73;56.41;102880.97;5031094;28;10355;-66
2023/05/18 00:05:00;;;;;;;;;0.00;0.00;;;;;10.68;56.72;102887.81;5028036;28;10289;-66
2023/05/18 00:07:28;;;;;;;;;2.00;1.50;;;;;10.70;56.58;102886.69;5030002;28;10171;-65
2023/05/18 00:09:55;;;;;;;;;1.00;1.00;;;;;10.72;56.30;102881.13;5026746;28;10358;-65
2023/05/18 00:12:21;;;;;;;;;1.00;1.00;;;;;10.73;55.81;102886.34;5028437;28;10268;-66
2023/05/18 00:14:48;;;;;;;;;1.75;0.75;;;;;10.72;55.63;102890.06;5028839;28;10139;-66
2023/05/18 00:17:15;;;;;;;;;2.00;2.00;;;;;10.72;55.57;102886.53;5028997;28;10154;-66
2023/05/18 00:19:45;;;;;;;;;2.00;2.00;;;;;10.70;55.42;102900.16;5030276;28;10323;-65
2023/05/18 00:22:17;;;;;;;;;1.00;1.00;;;;;10.66;55.67;102887.13;5024439;28;10255;-65
2023/05/18 00:24:45;;;;;;;;;1.75;1.00;;;;;10.57;55.68;102892.38;5018282;28;10162;-64
2023/05/18 00:27:11;;;;;;;;;2.00;2.00;;;;;10.50;54.93;102896.63;5042183;28;10229;-65
2023/05/18 00:29:38;;;;;;;;;2.00;1.25;;;;;10.52;55.34;102888.38;5030848;28;10470;-66
2023/05/18 00:32:05;;;;;;;;;3.00;2.00;;;;;10.54;55.25;102892.66;5027635;28;10248;-66
2023/05/18 00:34:31;;;;;;;;;2.00;2.00;;;;;10.58;55.43;102895.91;5027510;28;10229;-66
2023/05/18 00:36:58;;;;;;;;;1.25;1.00;;;;;10.58;55.44;102895.91;5045131;28;10387;-64
2023/05/18 00:39:25;;;;;;;;;1.00;1.00;;;;;10.39;54.53;102892.22;5043712;28;11022;-66
2023/05/18 00:41:51;;;;;;;;;2.00;2.00;;;;;10.26;55.35;102891.69;5036956;28;10289;-66
2023/05/18 00:44:18;;;;;;;;;1.25;0.75;;;;;10.27;55.11;102887.97;5027042;28;10410;-66
2023/05/18 00:46:44;;;;;;;;;1.00;1.00;;;;;10.20;55.50;102883.28;5027311;28;10297;-65
2023/05/18 00:49:11;;;;;;;;;1.75;1.75;;;;;10.26;55.35;102888.13;5043318;28;10295;-65
2023/05/18 00:51:39;;;;;;;;;1.00;1.00;;;;;10.24;55.21;102890.91;5026227;28;10490;-66
2023/05/18 00:54:07;;;;;;;;;1.00;1.00;;;;;10.26;55.08;102891.69;5040561;28;10308;-65
2023/05/18 00:56:34;;;;;;;;;1.50;0.50;;;;;10.19;54.70;102892.34;5044865;28;10443;-65
2023/05/18 00:59:02;;;;;;;;;0.75;0.75;;;;;10.18;54.64;102888.81;5043431;28;10287;-65
2023/05/18 01:01:33;;;;;;;;;1.00;1.00;;;;;10.22;55.23;102887.53;5028061;28;10302;-65
2023/05/18 01:04:01;;;;;;;;;1.00;1.00;;;;;10.27;54.62;102895.22;5027597;28;10218;-64
2023/05/18 01:06:39;;;;;;;;;0.00;0.00;;;;;10.32;54.66;102890.25;5021194;28;10503;-66
2023/05/18 01:09:09;;;;;;;;;1.00;1.00;;;;;10.36;54.89;102883.59;5043292;28;10369;-65
2023/05/18 01:11:43;;;;;;;;;2.00;1.00;;;;;10.39;54.60;102896.78;5028590;28;10399;-65
2023/05/18 01:14:18;;;;;;;;;2.00;1.00;;;;;10.30;53.41;102903.00;5026337;28;10290;-66
2023/05/18 01:17:09;;;;;;;;;4.00;1.00;;;;;10.16;54.64;102896.16;5042889;28;11257;-65
2023/05/18 01:19:51;;;;;;;;;1.00;1.00;;;;;10.19;54.85;102889.66;5037891;28;10490;-65
2023/05/18 01:22:40;;;;;;;;;1.00;1.00;;;;;10.21;54.68;102893.03;5023852;28;10328;-65
2023/05/18 01:25:39;;;;;;;;;1.00;0.75;;;;;10.25;55.15;102895.38;5040637;28;10354;-66
2023/05/18 01:28:15;;;;;;;;;0.00;0.00;;;;;10.28;55.11;102897.75;5023388;28;10447;-65
2023/05/18 01:30:42;;;;;;;;;0.25;0.25;;;;;10.30;55.00;102887.72;5039584;28;10316;-65
2023/05/18 01:33:10;;;;;;;;;2.00;1.00;;;;;10.30;54.94;102893.09;5041048;28;10204;-65
2023/05/18 01:35:40;;;;;;;;;0.25;0.25;;;;;10.32;54.43;102888.41;5024058;28;10262;-65
2023/05/18 01:38:07;;;;;;;;;1.00;1.00;;;;;10.30;54.14;102893.09;5027829;28;10320;-66
2023/05/18 01:41:05;;;;;;;;;1.00;1.00;;;;;10.31;54.53;102891.25;5028120;28;10321;-66
2023/05/18 01:43:36;;;;;;;;;1.00;1.00;;;;;10.24;53.69;102892.75;5027718;28;10997;-65
2023/05/18 01:46:24;;;;;;;;;1.00;1.00;;;;;10.16;54.53;102894.31;5027580;28;10211;-65
2023/05/18 01:48:58;;;;;;;;;0.00;0.00;;;;;10.10;54.53;102889.50;5023418;28;10312;-65
2023/05/18 01:51:30;;;;;;;;;8.00;2.50;;;;;10.12;54.41;102895.59;5027467;28;10367;-65
2023/05/18 01:54:07;;;;;;;;;0.75;0.75;;;;;10.14;54.54;102896.31;5020854;28;10190;-65
2023/05/18 01:56:38;;;;;;;;;1.25;1.25;;;;;10.15;54.83;102899.84;5005918;28;10322;-65
2023/05/18 01:59:05;;;;;;;;;1.00;1.00;;;;;10.09;54.04;102898.59;5027418;28;10436;-66
2023/05/18 02:01:32;;;;;;;;;2.00;2.00;;;;;10.06;54.53;102904.25;5040892;28;10273;-65
2023/05/18 02:03:59;;;;;;;;;2.75;1.75;;;;;10.11;54.38;102895.75;5022755;28;10328;-63
2023/05/18 02:06:25;;;;;;;;;0.25;0.25;;;;;10.12;55.12;102897.44;5020097;28;10356;-66
2023/05/18 02:08:52;;;;;;;;;1.00;1.00;;;;;10.10;54.69;102899.44;5028251;28;10228;-66
2023/05/18 02:11:20;;;;;;;;;1.50;1.50;;;;;10.08;54.53;102909.47;5023566;28;10489;-65
2023/05/18 02:13:46;;;;;;;;;2.00;1.75;;;;;10.10;55.12;102904.81;5026473;28;10379;-65
2023/05/18 02:16:14;;;;;;;;;2.75;1.00;;;;;10.09;55.12;102897.75;5026514;28;10379;-65
2023/05/18 02:18:40;;;;;;;;;2.50;2.50;;;;;10.09;55.33;102903.13;5024849;28;11147;-65
2023/05/18 02:21:08;;;;;;;;;2.75;2.00;;;;;10.08;54.83;102898.72;5028903;28;10527;-65
2023/05/18 02:23:35;;;;;;;;;1.00;1.00;;;;;10.11;55.03;102893.91;5033077;28;10445;-65
2023/05/18 02:26:02;;;;;;;;;0.50;0.50;;;;;10.05;55.27;102889.09;5022513;28;10413;-66
2023/05/18 02:28:29;;;;;;;;;4.00;1.00;;;;;9.98;54.97;102898.72;5047627;28;10554;-65
2023/05/18 02:31:04;;;;;;;;;3.50;1.75;;;;;9.91;55.17;102900.25;5028491;28;10586;-65
2023/05/18 02:33:38;;;;;;;;;0.00;0.00;;;;;9.85;55.44;102901.66;5025843;28;10454;-66
2023/05/18 02:36:11;;;;;;;;;1.00;1.00;;;;;9.83;55.57;102900.94;5029619;28;10285;-65
2023/05/18 02:38:42;;;;;;;;;1.00;1.00;;;;;9.89;55.65;102900.41;5030728;28;10359;-65
2023/05/18 02:41:10;;;;;;;;;1.00;1.00;;;;;9.84;54.83;102893.72;5029112;28;10424;-65
2023/05/18 02:43:36;;;;;;;;;0.00;0.00;;;;;9.90;54.76;102902.09;5047002;28;10437;-66
2023/05/18 02:46:03;;;;;;;;;1.00;1.00;;;;;9.95;54.98;102900.81;5029495;28;10386;-66
2023/05/18 02:48:32;;;;;;;;;2.00;1.00;;;;;9.98;54.99;102903.25;5030737;28;10374;-65
2023/05/18 02:50:59;;;;;;;;;2.25;2.25;;;;;9.97;55.17;102897.00;5030443;28;10479;-65
2023/05/18 02:53:25;;;;;;;;;0.50;0.50;;;;;9.99;55.11;102895.03;5015197;28;10532;-65
2023/05/18 02:55:58;;;;;;;;;1.25;1.25;;;;;10.03;54.86;102895.59;5044349;28;10282;-66
2023/05/18 02:58:29;;;;;;;;;1.00;1.00;;;;;9.96;54.83;102894.44;5028798;28;10373;-66
2023/05/18 03:01:06;;;;;;;;;4.00;1.00;;;;;9.96;54.60;102903.38;5054098;28;10547;-66
2023/05/18 03:03:40;;;;;;;;;2.50;2.50;;;;;9.96;54.99;102897.13;5032635;28;10541;-66
2023/05/18 03:06:08;;;;;;;;;1.00;1.00;;;;;9.97;55.33;102899.72;5029371;28;10514;-66
2023/05/18 03:08:36;;;;;;;;;1.00;1.00;;;;;9.98;55.32;102903.25;5031148;28;10395;-66
2023/05/18 03:11:02;;;;;;;;;0.75;0.75;;;;;9.95;55.76;102887.38;5030214;28;10379;-65
2023/05/18 03:13:29;;;;;;;;;0.25;0.25;;;;;9.93;55.42;102898.28;5044210;28;11105;-66
2023/05/18 03:15:56;;;;;;;;;1.50;1.50;;;;;9.87;55.76;102899.69;5034497;28;10362;-66
2023/05/18 03:18:24;;;;;;;;;3.00;1.00;;;;;9.86;55.85;102891.75;5045489;28;10468;-65
2023/05/18 03:20:51;;;;;;;;;0.75;0.75;;;;;9.83;56.10;102894.72;5047382;28;10399;-65
2023/05/18 03:23:19;;;;;;;;;1.00;1.00;;;;;9.82;56.10;102896.56;5046243;28;10396;-66
2023/05/18 03:25:52;;;;;;;;;1.00;1.00;;;;;9.82;55.92;102903.78;5030339;28;10489;-65
2023/05/18 03:28:20;;;;;;;;;0.50;0.50;;;;;9.78;55.99;102892.44;5030003;28;10408;-67
2023/05/18 03:30:47;;;;;;;;;1.00;1.00;;;;;9.77;55.98;102889.91;5028326;28;11268;-66
2023/05/18 03:33:14;;;;;;;;;0.00;0.00;;;;;9.75;55.99;102892.72;5021476;28;10599;-66
2023/05/18 03:35:41;;;;;;;;;0.75;0.75;;;;;9.73;56.14;102902.78;5027782;28;10441;-66
2023/05/18 03:38:08;;;;;;;;;0.75;0.75;;;;;9.72;56.33;102903.75;5028654;28;10529;-66
2023/05/18 03:40:36;;;;;;;;;1.00;1.00;;;;;9.70;56.45;102902.19;5030324;28;10464;-66
2023/05/18 03:43:03;;;;;;;;;1.00;1.00;;;;;9.69;56.37;102905.88;5030641;28;10662;-65
2023/05/18 03:45:31;;;;;;;;;0.75;0.75;;;;;9.69;56.66;102904.03;5028262;28;10498;-66
2023/05/18 03:47:57;;;;;;;;;1.75;1.75;;;;;9.71;56.46;102902.06;5046978;28;10496;-66
2023/05/18 03:50:24;;;;;;;;;0.75;0.00;;;;;9.71;56.43;102907.44;5029816;28;10607;-66
2023/05/18 03:52:51;;;;;;;;;1.00;1.00;;;;;9.72;56.43;102908.28;5043938;28;11110;-65
2023/05/18 03:55:20;;;;;;;;;2.25;1.00;;;;;9.69;56.29;102898.66;5030135;28;10517;-66
2023/05/18 03:57:47;;;;;;;;;1.25;0.75;;;;;9.69;56.95;102913.94;5028583;28;10556;-66
2023/05/18 04:00:14;;;;;;;;;1.00;1.00;;;;;9.68;56.39;102912.22;5031308;28;10722;-66
2023/05/18 04:02:44;;;;;;;;;0.00;0.00;;;;;9.69;56.61;102914.81;5032006;28;10447;-65
2023/05/18 04:05:17;;;;;;;;;1.00;1.00;;;;;9.71;56.24;102907.44;5029884;28;10472;-65
2023/05/18 04:07:45;;;;;;;;;1.00;1.00;;;;;9.71;56.49;102909.28;5013328;28;10367;-66
2023/05/18 04:10:13;;;;;;;;;0.00;0.00;;;;;9.72;56.29;102914.50;5030476;28;10285;-66
2023/05/18 04:12:41;;;;;;;;;2.00;1.00;;;;;9.73;56.40;102918.06;5036628;28;11155;-66
2023/05/18 04:15:09;;;;;;;;;4.00;1.50;;;;;9.75;55.68;102918.75;5027764;28;10390;-66
2023/05/18 04:17:35;;;;;;;;;2.00;1.00;;;;;9.78;56.03;102919.34;5037412;28;11118;-66
2023/05/18 04:20:10;;;;;;;;;0.25;0.25;;;;;9.78;56.40;102913.13;5044421;28;11203;-67
2023/05/18 04:22:47;;;;;;;;;0.00;0.00;;;;;9.78;55.90;102922.03;5020206;28;10470;-66
2023/05/18 04:25:16;;;;;;;;;0.50;0.50;;;;;9.79;56.13;102917.50;5028880;28;10520;-66
2023/05/18 04:27:46;;;;;;;;;1.00;1.00;;;;;9.77;56.12;102917.66;5028727;28;10351;-67
2023/05/18 04:30:17;;;;;;;;;1.00;1.00;;;;;9.79;56.29;102914.81;5042273;28;10448;-67
2023/05/18 04:32:44;;;;;;;;;0.50;0.50;;;;;9.79;56.02;102920.19;5028174;28;10401;-66
2023/05/18 04:35:10;;;;;;;;;3.00;1.25;;;;;9.71;56.02;102917.34;5028609;28;10505;-66
2023/05/18 04:37:41;;;;;;;;;0.00;0.00;;;;;9.69;55.57;102928.25;5045227;28;10403;-66
2023/05/18 04:40:12;;;;;;;;;2.00;1.00;;;;;9.69;55.43;102925.56;5023570;28;10475;-66
2023/05/18 04:42:46;;;;;;;;;4.00;1.25;;;;;9.59;54.55;102927.34;5026983;28;10373;-66
2023/05/18 04:45:24;;;;;;;;;1.00;1.00;;;;;9.51;54.92;102932.56;5027785;28;11184;-66
2023/05/18 04:47:53;;;;;;;;;2.50;2.00;;;;;9.47;55.19;102931.97;5038460;28;10440;-66
2023/05/18 04:50:25;;;;;;;;;2.25;1.75;;;;;9.53;54.79;102933.28;5024992;28;10526;-66
2023/05/18 04:52:52;;;;;;;;;1.75;1.75;;;;;9.48;55.32;102933.69;5025625;28;10615;-66
2023/05/18 04:55:24;;;;;;;;;0.75;0.75;;;;;9.55;55.81;102940.22;5027271;28;10390;-66
2023/05/18 04:57:59;;;;;;;;;1.00;1.00;;;;;9.64;55.41;102936.72;5044255;28;10545;-66
2023/05/18 05:00:27;;;;;;;;;0.00;0.00;;;;;9.70;55.72;102938.00;5044034;28;10434;-66
2023/05/18 05:02:56;;;;;;;;;1.00;1.00;;;;;9.75;55.47;102930.38;5041628;28;10350;-66
2023/05/18 05:05:24;;;;;;;;;1.00;1.00;;;;;9.68;55.01;102929.22;5027209;28;10521;-66
2023/05/18 05:07:57;;;;;;;;;1.75;1.50;;;;;9.53;55.18;102938.66;5020860;28;10446;-66
2023/05/18 05:10:24;;;;;;;;;0.25;0.00;;;;;9.51;56.12;102935.25;5040902;28;10994;-66
2023/05/18 05:12:51;;;;;;;;;2.00;2.00;;;;;9.62;56.17;102940.53;5012311;28;10292;-66
2023/05/18 05:15:18;;;;;;;;;1.00;1.00;;;;;9.69;56.30;102941.69;5044977;28;10527;-67
2023/05/18 05:17:47;;;;;;;;;3.00;2.25;;;;;9.77;56.85;102939.16;5021081;28;10581;-66
2023/05/18 05:20:15;;;;;;;;;5.50;2.25;;;;;9.74;56.09;102958.25;5044781;28;10426;-66
2023/05/18 05:22:42;;;;;;;;;4.00;4.00;;;;;9.65;55.72;102946.50;5044893;28;10374;-66
2023/05/18 05:25:10;;;;;;;;;3.00;3.00;;;;;9.51;55.47;102948.69;5034669;28;11229;-66
2023/05/18 05:27:38;;;;;;;;;3.25;2.00;;;;;9.38;56.60;102949.78;5048426;28;10546;-66
2023/05/18 05:30:06;;;;;;;;;3.25;2.00;;;;;9.43;56.61;102949.34;5035368;28;10450;-67
2023/05/18 05:32:35;;;;;;;;;6.00;4.50;;;;;9.47;56.37;102953.47;5042821;28;10428;-66
2023/05/18 05:35:03;;;;;;;;;2.25;2.25;;;;;9.45;56.87;102946.56;5028143;28;10583;-66
2023/05/18 05:37:30;;;;;;;;;2.00;2.00;;;;;9.48;56.74;102948.94;5025825;28;10420;-66
2023/05/18 05:39:58;;;;;;;;;2.00;2.00;;;;;9.52;56.17;102955.75;5040576;28;11115;-66
2023/05/18 05:42:25;;;;;;;;;1.00;1.00;;;;;9.55;56.87;102956.34;5028487;28;10389;-66
2023/05/18 05:44:52;;;;;;;;;2.00;1.00;;;;;9.67;56.20;102946.34;5039682;28;10288;-66
2023/05/18 05:47:19;;;;;;;;;3.50;2.50;;;;;9.76;55.90;102950.88;5027040;28;10395;-66
2023/05/18 05:49:45;;;;;;;;;1.25;1.25;;;;;9.89;55.88;102956.91;5026379;28;10463;-66
2023/05/18 05:52:12;;;;;;;;;4.50;4.50;;;;;10.07;55.67;102961.59;5027100;28;10645;-67
2023/05/18 05:54:40;;;;;;;;;3.00;2.00;;;;;10.24;55.44;102963.59;5028799;28;11095;-66
2023/05/18 05:57:08;;;;;;;;;2.75;2.75;;;;;10.38;54.82;102962.38;5043697;28;10252;-66
2023/05/18 05:59:35;;;;;;;;;10.75;3.00;;;;;10.51;53.73;102962.09;5041070;28;10297;-66
2023/05/18 06:02:01;;;;;;;;;1.00;1.00;;;;;10.62;53.79;102964.66;5029009;28;10508;-65
2023/05/18 06:04:28;;;;;;;;;1.75;1.75;;;;;10.69;52.78;102968.44;5031411;28;10066;-66
2023/05/18 06:06:56;;;;;;;;;1.00;1.00;;;;;10.84;53.02;102967.03;5031526;28;10308;-66
2023/05/18 06:09:23;;;;;;;;;1.00;1.00;;;;;10.82;52.36;102963.63;5031584;28;10217;-65
2023/05/18 06:11:49;;;;;;;;;2.00;2.00;;;;;10.75;52.88;102961.66;5047129;28;10238;-66
2023/05/18 06:14:16;;;;;;;;;1.25;1.25;;;;;10.71;53.34;102971.88;5028075;28;10205;-66
2023/05/18 06:16:43;;;;;;;;;2.75;2.75;;;;;10.60;52.29;102972.00;5044919;28;10158;-66
2023/05/18 06:19:10;;;;;;;;;5.00;2.00;;;;;10.37;52.99;102972.31;5046166;28;10103;-65
2023/05/18 06:21:37;;;;;;;;;2.00;2.00;;;;;10.36;53.50;102984.03;5034060;28;10330;-66
2023/05/18 06:24:04;;;;;;;;;1.00;1.00;;;;;10.38;53.59;102975.84;5046240;28;10243;-66
2023/05/18 06:26:40;;;;;;;;;2.25;1.75;;;;;10.32;53.92;102979.94;5031003;28;10221;-66
2023/05/18 06:29:14;;;;;;;;;1.75;1.75;;;;;10.25;53.91;102984.19;5030484;28;10306;-66
2023/05/18 06:32:02;;;;;;;;;3.50;3.00;;;;;10.21;52.96;102988.13;5027796;28;10243;-66
2023/05/18 06:34:38;;;;;;;;;3.50;2.25;;;;;10.15;53.40;102988.66;5048872;28;10355;-66
2023/05/18 06:37:05;;;;;;;;;4.75;1.75;;;;;10.13;53.43;102990.66;5047710;28;10511;-66
2023/05/18 06:39:31;;;;;;;;;2.25;2.25;;;;;10.20;53.96;102989.09;5030141;28;10300;-65
2023/05/18 06:41:58;;;;;;;;;2.00;2.00;;;;;10.20;52.98;102986.41;5031241;28;10315;-65
2023/05/18 06:44:32;;;;;;;;;2.50;2.00;;;;;10.26;53.49;102995.81;5023856;28;10325;-65
2023/05/18 06:47:08;;;;;;;;;1.75;1.75;;;;;10.31;53.08;102994.38;5045649;28;10169;-65
2023/05/18 06:49:35;;;;;;;;;2.00;2.00;;;;;10.37;53.27;102988.47;5029538;28;10301;-66
2023/05/18 06:52:02;;;;;;;;;2.00;2.00;;;;;10.41;52.46;102991.69;5047047;28;10320;-66
2023/05/18 06:54:29;;;;;;;;;5.00;5.00;;;;;10.31;53.42;102993.53;5043647;28;10452;-66
2023/05/18 06:56:57;;;;;;;;;5.00;5.00;;;;;10.33;53.92;102996.94;5042082;28;10463;-65
2023/05/18 06:59:23;;;;;;;;;2.00;2.00;;;;;10.38;55.67;102995.53;5033993;28;10374;-65
2023/05/18 07:01:50;;;;;;;;;7.50;2.50;;;;;10.34;53.68;102996.81;5023638;28;10238;-66
2023/05/18 07:04:18;;;;;;;;;2.50;1.25;;;;;10.24;54.08;102998.59;5029598;28;10381;-67
2023/05/18 07:06:45;;;;;;;;;1.75;0.25;;;;;10.29;54.33;103003.56;5031602;28;10336;-66
2023/05/18 07:09:11;;;;;;;;;4.50;4.50;;;;;10.32;53.41;103004.16;5030324;28;10297;-66
2023/05/18 07:11:39;;;;;;;;;2.75;2.75;;;;;10.23;53.11;103006.81;5029748;28;10595;-66
2023/05/18 07:14:05;;;;;;;;;1.75;1.75;;;;;10.16;52.96;103001.13;5027101;28;10453;-67
2023/05/18 07:16:32;;;;;;;;;2.00;2.00;;;;;10.13;52.96;103009.50;5030808;28;10302;-66
2023/05/18 07:18:59;;;;;;;;;3.00;1.75;;;;;10.44;59.48;103006.72;5029071;28;11440;-67
2023/05/18 07:21:25;;;;;;;;;4.00;3.50;;;;;10.51;53.68;103005.19;5027780;28;10296;-67
2023/05/18 07:23:52;;;;;;;;;1.50;1.50;;;;;10.47;53.45;103004.59;5032318;28;11153;-66
2023/05/18 07:26:18;;;;;;;;;1.50;1.50;;;;;10.58;54.87;103003.63;5031044;28;10225;-67
2023/05/18 07:28:46;;;;;;;;;3.00;3.00;;;;;10.71;57.46;103008.72;5029054;28;10169;-62
2023/05/18 07:31:15;;;;;;;;;2.75;1.75;;;;;10.98;55.34;103005.28;5030499;28;10486;-62
2023/05/18 07:33:43;;;;;;;;;5.00;3.00;;;;;11.22;53.80;103002.13;5038829;28;10367;-62
2023/05/18 07:36:09;;;;;;;;;1.25;1.25;;;;;11.35;52.12;103003.53;5027555;28;10234;-61
2023/05/18 07:38:36;;;;;;;;;2.00;2.00;;;;;11.35;49.41;103014.31;5038741;28;10299;-61
2023/05/18 07:41:02;;;;;;;;;2.00;2.00;;;;;11.08;50.75;103016.91;5030978;28;10278;-67
2023/05/18 07:43:29;;;;;;;;;3.25;3.25;;;;;11.06;52.31;103019.78;5030707;28;10220;-63
2023/05/18 07:45:56;;;;;;;;;2.00;2.00;;;;;11.11;51.26;103022.03;5046140;28;10152;-64
2023/05/18 07:48:22;;;;;;;;;5.00;2.75;;;;;11.01;50.22;103021.19;5046959;28;10863;-61
2023/05/18 07:50:49;;;;;;;;;4.00;2.00;;;;;10.82;50.68;103017.53;5031302;28;10238;-59
2023/05/18 07:53:15;;;;;;;;;2.75;2.75;;;;;10.72;51.80;103018.50;5030579;28;10227;-58
2023/05/18 07:55:42;;;;;;;;;2.00;2.00;;;;;10.78;52.52;103009.88;5028850;28;10256;-59
2023/05/18 07:58:09;;;;;;;;;4.50;3.00;;;;;10.85;51.50;103019.06;5029930;28;10251;-59
2023/05/18 08:00:36;;;;;;;;;5.50;4.25;;;;;10.85;51.91;103022.59;5031285;28;10160;-66
2023/05/18 08:03:03;;;;;;;;;2.75;2.75;;;;;10.64;51.17;103019.22;5031162;28;10000;-66
2023/05/18 08:05:29;;;;;;;;;3.00;3.00;;;;;10.52;52.58;103023.88;5029419;28;10775;-67
2023/05/18 08:07:56;;;;;;;;;3.50;2.00;;;;;10.54;51.94;103030.00;5028801;28;10208;-66
2023/05/18 08:10:23;;;;;;;;;5.00;5.00;;;;;10.60;54.31;103029.41;5031161;28;10354;-63
2023/05/18 08:12:50;;;;;;;;;2.75;2.00;;;;;10.68;55.31;103028.72;5031008;28;10965;-66
2023/05/18 08:15:17;;;;;;;;;2.00;2.00;;;;;10.70;53.41;103024.06;5046559;28;10304;-67
2023/05/18 08:17:43;;;;;;;;;5.00;3.00;;;;;10.56;52.48;103028.00;5020017;28;10361;-66
2023/05/18 08:20:10;;;;;;;;;3.00;3.00;;;;;10.45;51.71;103016.50;5021056;28;10424;-67
2023/05/18 08:22:37;;;;;;;;;6.50;3.00;;;;;10.45;52.75;103029.97;5044150;28;10222;-67
2023/05/18 08:25:04;;;;;;;;;2.25;2.25;;;;;10.48;52.64;103018.91;5030737;28;10438;-67
2023/05/18 08:27:30;;;;;;;;;3.00;3.00;;;;;10.51;52.54;103010.56;5045546;28;11018;-68
2023/05/18 08:29:57;;;;;;;;;2.00;2.00;;;;;10.59;52.97;103013.41;5045756;28;10369;-68
2023/05/18 08:32:24;;;;;;;;;4.00;1.75;;;;;10.50;52.30;103012.41;5033306;28;10235;-66
2023/05/18 08:34:50;;;;;;;;;10.50;5.75;;;;;10.50;52.08;103012.41;5028870;28;10468;-66
2023/05/18 08:37:17;;;;;;;;;1.50;1.50;;;;;10.60;52.38;103021.34;5029294;28;10361;-66
2023/05/18 08:39:44;;;;;;;;;4.50;4.00;;;;;10.66;52.05;103019.09;5029473;28;10215;-66
2023/05/18 08:42:19;;;;;;;;;3.00;2.50;;;;;10.65;51.82;103020.91;5029572;28;10251;-66
2023/05/18 08:45:00;;;;;;;;;8.50;3.50;;;;;10.67;52.56;103015.41;5026843;28;10304;-66
2023/05/18 08:47:30;;;;;;;;;3.50;1.75;;;;;10.62;52.00;103023.91;5016061;28;10988;-65
2023/05/18 08:50:01;;;;;;;;;1.25;1.25;;;;;10.64;51.86;103024.59;5028639;28;10224;-66
2023/05/18 08:52:34;;;;;;;;;4.00;3.50;;;;;10.58;51.18;103025.19;5045666;28;10231;-66
2023/05/18 08:55:11;;;;;;;;;5.00;4.25;;;;;10.49;51.55;103024.19;5043506;28;10241;-65
2023/05/18 08:57:38;;;;;;;;;2.50;2.50;;;;;10.48;52.16;103019.75;5016699;28;10239;-66
2023/05/18 09:00:06;;;;;;;;;6.00;6.00;;;;;10.50;52.08;103012.41;5027693;28;10220;-66
2023/05/18 09:02:33;;;;;;;;;2.00;2.00;;;;;10.57;52.91;103015.38;5027633;28;10338;-66
2023/05/18 09:05:01;;;;;;;;;5.00;5.00;;;;;10.66;52.29;103017.25;5031929;28;10311;-66
2023/05/18 09:07:28;;;;;;;;;5.00;5.00;;;;;10.66;51.76;103011.84;5017843;28;10483;-66
2023/05/18 09:09:56;;;;;;;;;29.00;25.25;;;;;10.89;55.86;103007.84;5044060;28;10223;-65
2023/05/18 09:12:23;;;;;;;;;28.00;19.50;;;;;10.89;53.88;102997.06;5023774;28;11028;-65
2023/05/18 09:14:50;;;;;;;;;8.00;6.00;;;;;10.93;51.00;102996.78;5026146;28;10895;-57
2023/05/18 09:17:17;;;;;;;;;7.25;5.75;;;;;10.87;51.00;102988.31;5027719;28;10386;-62
2023/05/18 09:19:44;;;;;;;;;7.50;5.25;;;;;11.01;54.03;102994.22;5039181;28;10951;-62
2023/05/18 09:22:10;;;;;;;;;7.00;5.00;;;;;10.96;50.67;102983.03;5030004;28;10143;-63
2023/05/18 09:24:37;;;;;;;;;3.25;3.25;;;;;10.96;50.58;102985.75;5014934;28;10322;-63
2023/05/18 09:27:05;;;;;;;;;3.75;3.75;;;;;11.01;50.41;102984.28;5029771;28;10155;-67
2023/05/18 09:29:31;;;;;;;;;4.00;4.00;;;;;11.08;50.00;102979.19;5029333;28;10342;-66
2023/05/18 09:32:05;;;;;;;;;7.50;5.75;;;;;10.90;49.56;102976.41;5044524;28;10244;-63
2023/05/18 09:34:40;;;;;;;;;6.25;5.00;;;;;10.92;52.57;102973.53;5043330;28;10956;-61
2023/05/18 09:37:08;;;;;;;;;6.00;4.00;;;;;11.11;54.06;102976.22;5021467;28;10449;-64
2023/05/18 09:39:34;;;;;;;;;5.75;5.75;;;;;11.30;51.83;102972.59;5014545;28;10335;-66
2023/05/18 09:42:04;;;;;;;;;4.50;4.50;;;;;11.33;50.63;102983.09;5028394;28;10302;-67
2023/05/18 09:44:33;;;;;;;;;2.00;2.00;;;;;11.41;50.75;102977.81;5027633;28;10188;-66
2023/05/18 09:47:00;;;;;;;;;4.50;4.50;;;;;11.54;50.53;102975.63;5027165;28;10106;-64
2023/05/18 09:49:30;;;;;;;;;5.25;5.00;;;;;11.51;50.07;102980.50;5028519;28;10292;-64
2023/05/18 09:51:59;;;;;;;;;5.00;5.00;;;;;11.48;50.01;102978.94;5044061;28;10082;-64
2023/05/18 09:54:25;;;;;;;;;7.00;6.25;;;;;11.47;49.43;102985.31;5023277;28;10190;-65
2023/05/18 09:56:52;;;;;;;;;7.00;5.75;;;;;11.37;49.85;102979.94;5029048;28;10021;-64
2023/05/18 09:59:35;;;;;;;;;7.50;5.00;;;;;11.29;50.35;102973.59;5041082;28;10392;-63
2023/05/18 10:02:07;;;;;;;;;4.00;4.00;;;;;11.37;50.03;102979.09;5029008;28;10197;-63
2023/05/18 10:04:39;;;;;;;;;8.50;6.00;;;;;11.43;50.78;102980.38;5027803;28;10082;-64
2023/05/18 10:07:14;;;;;;;;;5.00;5.00;;;;;11.50;49.69;102974.22;5029055;28;10281;-63
2023/05/18 10:09:41;;;;;;;;;7.00;5.75;;;;;11.53;50.42;102973.09;5021339;28;10322;-64
2023/05/18 10:12:16;;;;;;;;;10.75;7.00;;;;;11.59;49.99;102970.66;5026279;28;10238;-65
2023/05/18 10:14:44;;;;;;;;;5.00;4.00;;;;;11.63;49.67;102976.59;5026773;28;10263;-65
2023/05/18 10:17:15;;;;;;;;;5.00;5.00;;;;;11.69;51.82;102980.53;5027725;28;9922;-61
2023/05/18 10:19:45;;;;;;;;;4.75;4.50;;;;;12.10;55.33;102966.56;5020996;28;10109;-63
2023/05/18 10:22:15;;;;;;;;;6.50;4.00;;;;;12.33;50.91;102971.53;5028436;28;10182;-63
2023/05/18 10:24:44;;;;;;;;;3.50;3.50;;;;;12.46;51.59;102974.69;5026814;28;10809;-67
2023/05/18 10:27:13;;;;;;;;;6.50;6.50;;;;;12.44;48.34;102968.59;5029121;28;9848;-63
2023/05/18 10:29:40;;;;;;;;;3.50;3.50;;;;;12.40;48.46;102971.72;5028670;28;9930;-63
2023/05/18 10:32:11;;;;;;;;;4.00;4.00;;;;;12.27;47.40;102969.41;5023024;28;9917;-67
2023/05/18 10:34:39;;;;;;;;;7.00;7.00;;;;;12.07;48.90;102963.31;5035080;28;9928;-66
2023/05/18 10:37:06;;;;;;;;;8.50;8.50;;;;;12.02;48.79;102968.31;5044219;28;10202;-66
2023/05/18 10:39:38;;;;;;;;;43.25;39.00;;;;;12.03;49.61;102961.91;5044273;28;10259;-66
2023/05/18 10:42:08;;;;;;;;;7.00;5.50;;;;;12.06;49.35;102964.31;5045709;28;11181;-65
2023/05/18 10:44:35;;;;;;;;;5.25;2.00;;;;;12.05;49.72;102965.31;5025624;28;11183;-63
2023/05/18 10:47:04;;;;;;;;;4.00;2.50;;;;;12.11;49.09;102962.00;5029143;28;10170;-62
2023/05/18 10:49:32;;;;;;;;;3.25;3.25;;;;;12.10;48.95;102963.84;5032379;28;10726;-61
2023/05/18 10:51:59;;;;;;;;;3.50;2.50;;;;;12.16;50.07;102962.41;5031186;28;9883;-65
2023/05/18 10:54:26;;;;;;;;;3.50;3.50;;;;;12.23;48.61;102959.94;5044933;28;9944;-62
2023/05/18 10:56:53;;;;;;;;;2.50;2.50;;;;;12.18;48.32;102952.28;5030328;28;10081;-64
2023/05/18 10:59:23;;;;;;;;;5.00;4.75;;;;;12.19;50.01;102945.88;5039908;28;10141;-63
2023/05/18 11:01:52;;;;;;;;;7.50;4.75;;;;;12.26;49.77;102949.69;5030985;28;10248;-62
2023/05/18 11:04:25;;;;;;;;;4.75;3.25;;;;;12.30;49.39;102951.06;5030358;28;10129;-65
2023/05/18 11:07:00;;;;;;;;;1.25;1.25;;;;;12.38;49.63;102942.19;5030679;28;10858;-62
2023/05/18 11:09:29;;;;;;;;;4.75;4.75;;;;;12.40;47.70;102950.13;5031911;28;10713;-63
2023/05/18 11:11:58;;;;;;;;;4.75;2.00;;;;;12.27;48.91;102951.38;5020915;28;10121;-64
2023/05/18 11:14:31;;;;;;;;;2.00;2.00;;;;;12.29;49.64;102946.66;5022041;28;9934;-64
2023/05/18 11:17:21;;;;;;;;;5.00;5.00;;;;;12.37;49.73;102949.44;5028956;28;10623;-61
2023/05/18 11:22:48;;;;;;;;;2.50;2.50;;;;;12.25;48.71;102945.28;5017477;28;9776;-62
2023/05/18 11:25:27;;;;;;;;;4.75;4.75;;;;;12.10;48.98;102938.72;5037596;28;9819;-62
2023/05/18 11:28:00;;;;;;;;;6.00;5.00;;;;;12.01;48.62;102951.28;5031194;28;10013;-60
2023/05/18 11:30:29;;;;;;;;;5.50;4.75;;;;;12.00;50.23;102944.19;5030249;28;10014;-61
2023/05/18 11:33:25;;;;;;;;;8.25;3.75;;;;;12.16;51.50;102942.66;5029180;28;10082;-61
2023/05/18 11:35:59;;;;;;;;;3.00;3.00;;;;;12.28;50.08;102941.44;5044750;28;9939;-61
2023/05/18 11:38:51;;;;;;;;;4.50;4.50;;;;;12.27;48.70;102945.13;5027296;28;9964;-61